createdAt,value
2023-02-13T00:01:41.949Z,102774.44
2023-02-13T00:04:08.394Z,102776.44
2023-02-13T00:06:34.882Z,102777.44
2023-02-13T00:09:02.714Z,102781.00
2023-02-13T00:11:29.233Z,102774.09
2023-02-13T00:13:55.696Z,102789.19
2023-02-13T00:16:22.121Z,102781.13
2023-02-13T00:18:48.609Z,102780.47
2023-02-13T00:21:15.270Z,102780.47
2023-02-13T00:23:41.933Z,102782.44
2023-02-13T00:26:15.550Z,102780.22
2023-02-13T00:28:42.663Z,102782.16
2023-02-13T00:31:21.137Z,102779.81
2023-02-13T00:33:48.070Z,102780.78
2023-02-13T00:36:17.419Z,102773.72
2023-02-13T00:38:44.599Z,102778.25
2023-02-13T00:41:11.581Z,102781.09
2023-02-13T00:43:38.387Z,102773.03
2023-02-13T00:46:05.981Z,102772.38
2023-02-13T00:48:34.516Z,102773.03
2023-02-13T00:51:02.455Z,102777.75
2023-02-13T00:53:29.293Z,102776.06
2023-02-13T00:55:55.947Z,102780.59
2023-02-13T00:58:23.531Z,102783.13
2023-02-13T01:00:52.180Z,102778.75
2023-02-13T01:03:19.363Z,102781.59
2023-02-13T01:05:46.288Z,102776.06
2023-02-13T01:08:12.855Z,102779.75
2023-02-13T01:10:40.262Z,102771.69
2023-02-13T01:13:07.752Z,102774.53
2023-02-13T01:15:34.382Z,102769.31
2023-02-13T01:18:01.049Z,102765.66
2023-02-13T01:20:28.307Z,102766.06
2023-02-13T01:22:54.861Z,102757.25
2023-02-13T01:25:21.641Z,102760.28
2023-02-13T01:27:48.070Z,102768.94
2023-02-13T01:30:16.259Z,102760.28
2023-02-13T01:32:44.458Z,102757.06
2023-02-13T01:35:12.452Z,102748.63
2023-02-13T01:37:39.570Z,102757.84
2023-02-13T01:40:08.224Z,102752.47
2023-02-13T01:42:37.133Z,102745.41
2023-02-13T01:45:15.673Z,102748.78
2023-02-13T01:47:48.147Z,102746.28
2023-02-13T01:50:24.322Z,102751.09
2023-02-13T01:52:57.762Z,102742.72
2023-02-13T01:55:26.190Z,102744.72
2023-02-13T01:58:06.626Z,102739.56
2023-02-13T02:00:34.579Z,102736.66
2023-02-13T02:03:08.149Z,102736.34
2023-02-13T02:05:35.967Z,102734.28
2023-02-13T02:08:06.595Z,102738.34
2023-02-13T02:10:33.749Z,102736.97
2023-02-13T02:13:14.146Z,102729.00
2023-02-13T02:15:42.586Z,102731.59
2023-02-13T02:18:19.640Z,102729.28
2023-02-13T02:21:10.906Z,102736.56
2023-02-13T02:24:08.431Z,102736.72
2023-02-13T02:27:02.492Z,102739.75
2023-02-13T02:29:47.222Z,102739.41
2023-02-13T02:32:32.148Z,102728.13
2023-02-13T02:35:23.316Z,102730.53
2023-02-13T02:38:20.687Z,102721.94
2023-02-13T02:41:10.736Z,102720.59
2023-02-13T02:44:05.657Z,102719.91
2023-02-13T02:46:39.520Z,102716.16
2023-02-13T02:49:29.810Z,102713.81
2023-02-13T02:52:15.426Z,102707.28
2023-02-13T02:55:18.791Z,102707.50
2023-02-13T02:58:30.637Z,102703.78
2023-02-13T03:01:19.031Z,102707.91
2023-02-13T03:04:07.765Z,102704.41
2023-02-13T03:06:51.599Z,102702.72
2023-02-13T03:09:45.138Z,102713.13
2023-02-13T03:12:34.648Z,102713.63
2023-02-13T03:15:01.210Z,102715.78
2023-02-13T03:17:46.674Z,102709.41
2023-02-13T03:20:54.732Z,102708.25
2023-02-13T03:23:27.445Z,102712.13
2023-02-13T03:26:19.547Z,102716.13
2023-02-13T03:29:24.599Z,102713.66
2023-02-13T03:32:28.045Z,102709.28
2023-02-13T03:35:34.842Z,102717.50
2023-02-13T03:38:10.938Z,102719.47
2023-02-13T03:41:15.126Z,102719.84
2023-02-13T03:43:51.162Z,102707.09
2023-02-13T03:46:19.845Z,102718.13
2023-02-13T03:49:06.543Z,102721.97
2023-02-13T03:51:54.704Z,102710.75
2023-02-13T03:54:45.332Z,102718.81
2023-02-13T03:57:36.503Z,102721.50
2023-02-13T04:00:09.971Z,102722.50
2023-02-13T04:02:42.639Z,102719.81
2023-02-13T04:05:17.785Z,102714.44
2023-02-13T04:07:44.493Z,102723.84
2023-02-13T04:10:13.368Z,102720.63
2023-02-13T04:12:55.203Z,102714.19
2023-02-13T04:15:34.769Z,102725.34
2023-02-13T04:18:15.591Z,102718.16
2023-02-13T04:20:42.240Z,102710.25
2023-02-13T04:23:09.764Z,102711.56
2023-02-13T04:25:39.148Z,102716.66
2023-02-13T04:28:06.257Z,102719.81
2023-02-13T04:30:33.401Z,102711.94
2023-02-13T04:32:59.983Z,102716.44
2023-02-13T04:35:26.604Z,102712.75
2023-02-13T04:37:53.105Z,102718.13
2023-02-13T04:40:19.841Z,102704.69
2023-02-13T04:42:48.009Z,102713.25
2023-02-13T04:45:14.898Z,102714.13
2023-02-13T04:47:42.326Z,102708.91
2023-02-13T04:50:09.381Z,102704.69
2023-02-13T04:52:35.976Z,102708.25
2023-02-13T04:55:02.562Z,102703.72
2023-02-13T04:57:29.126Z,102704.53
2023-02-13T04:59:56.031Z,102699.31
2023-02-13T05:02:22.568Z,102692.97
2023-02-13T05:04:49.610Z,102696.66
2023-02-13T05:07:16.497Z,102692.25
2023-02-13T05:09:43.054Z,102693.28
2023-02-13T05:12:09.582Z,102692.59
2023-02-13T05:14:36.246Z,102695.97
2023-02-13T05:17:02.870Z,102707.72
2023-02-13T05:19:29.390Z,102706.03
2023-02-13T05:22:14.539Z,102704.34
2023-02-13T05:24:41.077Z,102711.72
2023-02-13T05:27:07.611Z,102721.47
2023-02-13T05:29:34.139Z,102711.72
2023-02-13T05:32:00.882Z,102708.34
2023-02-13T05:34:28.097Z,102709.69
2023-02-13T05:36:55.132Z,102712.25
2023-02-13T05:39:22.549Z,102719.09
2023-02-13T05:41:49.906Z,102730.69
2023-02-13T05:44:16.997Z,102722.81
2023-02-13T05:46:45.046Z,102716.56
2023-02-13T05:49:13.471Z,102728.19
2023-02-13T05:51:40.088Z,102717.44
2023-02-13T05:54:06.675Z,102726.16
2023-02-13T05:56:33.212Z,102726.16
2023-02-13T05:59:00.199Z,102722.47
2023-02-13T06:01:26.701Z,102731.53
2023-02-13T06:03:53.393Z,102732.22
2023-02-13T06:06:20.142Z,102722.13
2023-02-13T06:08:46.780Z,102727.50
2023-02-13T06:11:13.272Z,102736.56
2023-02-13T06:13:42.775Z,102737.44
2023-02-13T06:16:10.932Z,102735.72
2023-02-13T06:18:39.010Z,102734.91
2023-02-13T06:21:06.501Z,102736.91
2023-02-13T06:23:33.121Z,102738.59
2023-02-13T06:26:05.492Z,102743.28
2023-02-13T06:28:32.590Z,102747.31
2023-02-13T06:31:01.074Z,102744.63
2023-02-13T06:33:27.972Z,102746.31
2023-02-13T06:35:54.458Z,102749.84
2023-02-13T06:38:21.706Z,102743.28
2023-02-13T06:40:49.730Z,102746.50
2023-02-13T06:43:18.007Z,102745.41
2023-02-13T06:45:47.120Z,102748.56
2023-02-13T06:48:14.243Z,102742.22
2023-02-13T06:50:40.795Z,102750.31
2023-02-13T06:53:07.322Z,102744.47
2023-02-13T06:55:33.877Z,102749.69
2023-02-13T06:58:00.506Z,102752.72
2023-02-13T07:00:27.301Z,102748.94
2023-02-13T07:02:53.983Z,102765.13
2023-02-13T07:05:20.409Z,102757.59
2023-02-13T07:07:46.947Z,102761.75
2023-02-13T07:10:14.717Z,102771.66
2023-02-13T07:12:41.632Z,102759.53
2023-02-13T07:15:08.935Z,102763.59
2023-02-13T07:17:35.687Z,102760.44
2023-02-13T07:20:04.515Z,102760.09
2023-02-13T07:22:32.977Z,102760.78
2023-02-13T07:25:00.195Z,102762.31
2023-02-13T07:27:29.364Z,102773.75
2023-02-13T07:29:58.928Z,102764.16
2023-02-13T07:32:25.681Z,102775.97
2023-02-13T07:35:01.283Z,102774.97
2023-02-13T07:37:29.711Z,102777.28
2023-02-13T07:39:56.272Z,102770.56
2023-02-13T07:42:22.870Z,102772.91
2023-02-13T07:44:49.628Z,102776.13
2023-02-13T07:47:17.796Z,102789.25
2023-02-13T07:49:45.446Z,102780.66
2023-02-13T07:52:11.946Z,102784.00
2023-02-13T07:54:47.233Z,102786.69
2023-02-13T07:57:15.450Z,102792.06
2023-02-13T07:59:42.078Z,102790.38
2023-02-13T08:02:17.674Z,102790.38
2023-02-13T08:04:46.433Z,102795.22
2023-02-13T08:07:14.734Z,102797.88
2023-02-13T08:09:59.705Z,102796.00
2023-02-13T08:12:26.343Z,102792.44
2023-02-13T08:14:53.881Z,102796.78
2023-02-13T08:17:20.355Z,102803.78
2023-02-13T08:19:46.823Z,102796.56
2023-02-13T08:22:13.334Z,102803.41
2023-02-13T08:24:39.808Z,102801.38
2023-02-13T08:27:06.312Z,102801.13
2023-02-13T08:29:34.616Z,102798.06
2023-02-13T08:32:01.162Z,102799.56
2023-02-13T08:34:27.724Z,102801.88
2023-02-13T08:36:54.191Z,102797.84
2023-02-13T08:39:20.747Z,102794.63
2023-02-13T08:41:47.200Z,102803.13
2023-02-13T08:44:14.672Z,102799.94
2023-02-13T08:46:41.283Z,102794.19
2023-02-13T08:49:07.812Z,102798.72
2023-02-13T08:51:34.739Z,102795.50
2023-02-13T08:54:01.239Z,102794.16
2023-02-13T08:56:27.758Z,102800.50
2023-02-13T08:58:55.065Z,102802.50
2023-02-13T09:01:21.776Z,102806.50
2023-02-13T09:03:48.205Z,102807.03
2023-02-13T09:06:14.708Z,102806.50
2023-02-13T09:08:41.245Z,102815.84
2023-02-13T09:11:07.822Z,102805.44
2023-02-13T09:13:35.491Z,102806.59
2023-02-13T09:16:07.198Z,102806.59
2023-02-13T09:18:35.148Z,102810.44
2023-02-13T09:21:04.634Z,102800.69
2023-02-13T09:23:33.369Z,102806.06
2023-02-13T09:26:05.444Z,102811.97
2023-02-13T09:28:34.080Z,102809.72
2023-02-13T09:31:04.711Z,102809.06
2023-02-13T09:33:31.378Z,102810.06
2023-02-13T09:35:58.168Z,102801.00
2023-02-13T09:38:24.890Z,102801.00
2023-02-13T09:40:59.863Z,102799.69
2023-02-13T09:43:31.487Z,102800.31
2023-02-13T09:46:05.104Z,102810.59
2023-02-13T09:48:37.440Z,102803.69
2023-02-13T09:51:05.267Z,102813.06
2023-02-13T09:53:36.368Z,102810.38
2023-02-13T09:56:21.378Z,102802.97
2023-02-13T20:41:59.017Z,102613.88
2023-02-13T20:44:25.578Z,102613.47
2023-02-13T20:46:52.257Z,102608.59
2023-02-13T20:49:21.911Z,102617.91
2023-02-13T20:51:48.935Z,102618.63
2023-02-13T20:54:15.546Z,102614.56
2023-02-13T20:56:42.014Z,102610.50
2023-02-13T20:59:08.526Z,102614.31
2023-02-13T21:01:40.511Z,102609.38
2023-02-13T21:04:10.041Z,102610.25
2023-02-13T21:06:38.157Z,102614.94
2023-02-13T21:09:06.962Z,102621.53
2023-02-13T21:11:34.509Z,102617.75
2023-02-13T21:14:01.926Z,102621.72
2023-02-13T21:16:36.888Z,102617.63
2023-02-13T21:19:07.868Z,102614.25
2023-02-13T21:21:37.279Z,102610.19
2023-02-13T21:24:08.520Z,102603.44
2023-02-13T21:26:35.539Z,102602.34
2023-02-13T21:29:02.061Z,102608.97
2023-02-13T21:31:33.276Z,102604.31
2023-02-13T21:34:03.162Z,102603.19
2023-02-13T21:36:30.710Z,102602.75
2023-02-13T21:38:57.270Z,102611.06
2023-02-13T21:41:23.925Z,102605.97
2023-02-13T21:43:51.051Z,102605.31
2023-02-13T21:46:18.873Z,102606.56
2023-02-13T21:48:46.293Z,102607.13
2023-02-13T21:51:18.034Z,102611.34
2023-02-13T21:53:45.478Z,102613.88
2023-02-13T21:56:15.741Z,102621.75
2023-02-13T21:58:43.796Z,102613.59
2023-02-13T22:01:23.953Z,102618.22
2023-02-13T22:03:52.226Z,102606.28
2023-02-13T22:06:20.110Z,102604.03
2023-02-13T22:08:47.298Z,102613.03
2023-02-13T22:11:14.260Z,102615.28
2023-02-13T22:13:40.738Z,102622.56
2023-02-13T22:16:09.197Z,102622.56
2023-02-13T22:18:38.418Z,102621.16
2023-02-13T22:21:14.072Z,102622.72
2023-02-13T22:23:42.169Z,102629.84
2023-02-13T22:26:15.440Z,102626.22
2023-02-13T22:28:42.207Z,102627.75
2023-02-13T22:31:09.736Z,102632.38
2023-02-13T22:33:36.446Z,102633.63
2023-02-13T22:36:03.334Z,102636.59
2023-02-13T22:38:33.280Z,102637.56
2023-02-13T22:41:11.494Z,102634.88
2023-02-13T22:43:38.343Z,102635.84
2023-02-13T22:46:06.820Z,102640.47
2023-02-13T22:48:36.403Z,102636.97
2023-02-13T22:51:08.362Z,102638.06
2023-02-13T22:53:36.083Z,102642.28
2023-02-13T22:56:03.918Z,102641.56
2023-02-13T22:58:30.587Z,102637.34
2023-02-13T23:00:58.269Z,102633.09
2023-02-13T23:03:25.117Z,102637.75
2023-02-13T23:05:51.955Z,102642.34
2023-02-13T23:08:18.421Z,102633.88
2023-02-13T23:11:04.994Z,102633.66
2023-02-13T23:13:31.930Z,102635.75
2023-02-13T23:15:58.438Z,102629.97
2023-02-13T23:18:24.956Z,102639.09
2023-02-13T23:20:51.435Z,102633.03
2023-02-13T23:23:18.141Z,102627.13
2023-02-13T23:25:44.632Z,102626.56
2023-02-13T23:28:11.109Z,102626.84
2023-02-13T23:30:37.589Z,102628.78
2023-02-13T23:33:04.196Z,102637.19
2023-02-13T23:35:30.722Z,102630.44
2023-02-13T23:37:57.297Z,102628.16
2023-02-13T23:40:23.801Z,102632.88
2023-02-13T23:42:50.295Z,102627.00
2023-02-13T23:45:16.828Z,102625.56
2023-02-13T23:47:43.381Z,102627.50
2023-02-13T23:50:10.181Z,102633.13
2023-02-13T23:52:36.660Z,102633.66
2023-02-13T23:55:03.717Z,102631.41
2023-02-13T23:57:30.295Z,102630.84
2023-02-13T23:59:56.796Z,102626.59
